sensor_id;sensor_type;location;lat;lon;timestamp;temperature;humidity
3727;DHT22;1879;45.876;12.300;2024-03-22T00:02:08;11.50;99.90
3727;DHT22;1879;45.876;12.300;2024-03-22T00:04:38;11.50;99.90
3727;DHT22;1879;45.876;12.300;2024-03-22T00:07:04;11.60;99.90
3727;DHT22;1879;45.876;12.300;2024-03-22T00:09:31;11.50;99.90
3727;DHT22;1879;45.876;12.300;2024-03-22T00:11:57;11.50;99.90
3727;DHT22;1879;45.876;12.300;2024-03-22T00:14:24;11.50;97.40
3727;DHT22;1879;45.876;12.300;2024-03-22T00:16:50;11.50;93.10
3727;DHT22;1879;45.876;12.300;2024-03-22T00:19:18;11.60;94.80
3727;DHT22;1879;45.876;12.300;2024-03-22T00:21:44;11.60;92.50
3727;DHT22;1879;45.876;12.300;2024-03-22T00:24:11;11.70;84.00
3727;DHT22;1879;45.876;12.300;2024-03-22T00:26:37;11.70;71.80
3727;DHT22;1879;45.876;12.300;2024-03-22T00:29:04;11.60;69.90
3727;DHT22;1879;45.876;12.300;2024-03-22T00:31:30;11.60;74.30
3727;DHT22;1879;45.876;12.300;2024-03-22T00:33:57;11.60;90.80
3727;DHT22;1879;45.876;12.300;2024-03-22T00:36:25;11.60;74.60
3727;DHT22;1879;45.876;12.300;2024-03-22T00:38:52;11.60;63.20
3727;DHT22;1879;45.876;12.300;2024-03-22T00:41:17;11.60;45.20
3727;DHT22;1879;45.876;12.300;2024-03-22T00:43:44;11.50;42.70
3727;DHT22;1879;45.876;12.300;2024-03-22T00:46:10;11.50;49.10
3727;DHT22;1879;45.876;12.300;2024-03-22T00:48:37;11.50;52.20
3727;DHT22;1879;45.876;12.300;2024-03-22T00:51:03;11.50;46.10
3727;DHT22;1879;45.876;12.300;2024-03-22T00:53:32;11.40;61.10
3727;DHT22;1879;45.876;12.300;2024-03-22T00:55:57;11.40;54.90
3727;DHT22;1879;45.876;12.300;2024-03-22T00:58:26;11.40;57.30
3727;DHT22;1879;45.876;12.300;2024-03-22T01:00:52;11.30;67.20
3727;DHT22;1879;45.876;12.300;2024-03-22T01:03:20;11.30;78.10
3727;DHT22;1879;45.876;12.300;2024-03-22T01:05:46;11.20;75.60
3727;DHT22;1879;45.876;12.300;2024-03-22T01:08:14;11.20;77.30
3727;DHT22;1879;45.876;12.300;2024-03-22T01:10:41;11.10;75.70
3727;DHT22;1879;45.876;12.300;2024-03-22T01:13:08;11.00;88.40
3727;DHT22;1879;45.876;12.300;2024-03-22T01:15:34;11.00;92.40
3727;DHT22;1879;45.876;12.300;2024-03-22T01:18:01;10.90;94.90
3727;DHT22;1879;45.876;12.300;2024-03-22T01:20:27;10.90;95.80
3727;DHT22;1879;45.876;12.300;2024-03-22T01:22:54;10.90;92.60
3727;DHT22;1879;45.876;12.300;2024-03-22T01:25:20;10.90;95.50
3727;DHT22;1879;45.876;12.300;2024-03-22T01:28:04;10.90;83.80
3727;DHT22;1879;45.876;12.300;2024-03-22T01:30:31;10.90;97.00
3727;DHT22;1879;45.876;12.300;2024-03-22T01:33:19;10.90;91.00
3727;DHT22;1879;45.876;12.300;2024-03-22T01:36:11;10.80;99.90
3727;DHT22;1879;45.876;12.300;2024-03-22T01:38:41;10.80;99.90
3727;DHT22;1879;45.876;12.300;2024-03-22T01:41:08;10.80;99.90
3727;DHT22;1879;45.876;12.300;2024-03-22T01:43:35;10.80;99.90
3727;DHT22;1879;45.876;12.300;2024-03-22T01:46:02;10.80;99.90
3727;DHT22;1879;45.876;12.300;2024-03-22T01:48:28;10.80;98.70
3727;DHT22;1879;45.876;12.300;2024-03-22T01:50:55;10.80;97.10
3727;DHT22;1879;45.876;12.300;2024-03-22T01:53:22;10.90;61.40
3727;DHT22;1879;45.876;12.300;2024-03-22T01:55:50;10.90;69.90
3727;DHT22;1879;45.876;12.300;2024-03-22T01:58:16;10.90;60.80
3727;DHT22;1879;45.876;12.300;2024-03-22T02:00:44;10.90;65.60
3727;DHT22;1879;45.876;12.300;2024-03-22T02:03:11;10.90;65.10
3727;DHT22;1879;45.876;12.300;2024-03-22T02:05:38;10.90;62.70
3727;DHT22;1879;45.876;12.300;2024-03-22T02:08:05;10.80;48.60
3727;DHT22;1879;45.876;12.300;2024-03-22T02:10:32;10.90;57.10
3727;DHT22;1879;45.876;12.300;2024-03-22T02:12:58;10.90;47.10
3727;DHT22;1879;45.876;12.300;2024-03-22T02:15:25;10.90;29.00
3727;DHT22;1879;45.876;12.300;2024-03-22T02:17:52;11.00;8.70
3727;DHT22;1879;45.876;12.300;2024-03-22T02:20:19;11.10;1.00
3727;DHT22;1879;45.876;12.300;2024-03-22T02:22:45;11.20;1.00
3727;DHT22;1879;45.876;12.300;2024-03-22T02:25:13;11.20;1.00
3727;DHT22;1879;45.876;12.300;2024-03-22T02:27:39;11.10;20.40
3727;DHT22;1879;45.876;12.300;2024-03-22T02:30:07;11.00;30.30
3727;DHT22;1879;45.876;12.300;2024-03-22T02:32:33;10.90;23.10
3727;DHT22;1879;45.876;12.300;2024-03-22T02:35:00;10.80;28.70
3727;DHT22;1879;45.876;12.300;2024-03-22T02:37:26;10.80;34.30
3727;DHT22;1879;45.876;12.300;2024-03-22T02:39:53;10.70;42.00
3727;DHT22;1879;45.876;12.300;2024-03-22T02:42:21;10.70;29.50
3727;DHT22;1879;45.876;12.300;2024-03-22T02:44:47;10.70;30.00
3727;DHT22;1879;45.876;12.300;2024-03-22T02:47:13;10.60;46.20
3727;DHT22;1879;45.876;12.300;2024-03-22T02:49:41;10.60;56.90
3727;DHT22;1879;45.876;12.300;2024-03-22T02:52:07;10.60;67.60
3727;DHT22;1879;45.876;12.300;2024-03-22T02:54:34;10.60;70.00
3727;DHT22;1879;45.876;12.300;2024-03-22T02:57:00;10.60;54.90
3727;DHT22;1879;45.876;12.300;2024-03-22T02:59:28;10.50;58.50
3727;DHT22;1879;45.876;12.300;2024-03-22T03:01:54;10.40;75.60
3727;DHT22;1879;45.876;12.300;2024-03-22T03:04:21;10.20;81.10
3727;DHT22;1879;45.876;12.300;2024-03-22T03:06:47;10.30;85.10
3727;DHT22;1879;45.876;12.300;2024-03-22T03:09:14;10.30;82.70
3727;DHT22;1879;45.876;12.300;2024-03-22T03:11:40;10.30;81.10
3727;DHT22;1879;45.876;12.300;2024-03-22T03:14:07;10.30;64.50
3727;DHT22;1879;45.876;12.300;2024-03-22T03:16:34;10.30;76.80
3727;DHT22;1879;45.876;12.300;2024-03-22T03:19:01;10.30;86.00
3727;DHT22;1879;45.876;12.300;2024-03-22T03:21:27;10.30;73.80
3727;DHT22;1879;45.876;12.300;2024-03-22T03:23:54;10.20;63.60
3727;DHT22;1879;45.876;12.300;2024-03-22T03:26:20;10.30;58.30
3727;DHT22;1879;45.876;12.300;2024-03-22T03:28:47;10.30;51.30
3727;DHT22;1879;45.876;12.300;2024-03-22T03:31:13;10.40;22.30
3727;DHT22;1879;45.876;12.300;2024-03-22T03:34:10;10.40;46.10
3727;DHT22;1879;45.876;12.300;2024-03-22T03:36:37;10.40;40.80
3727;DHT22;1879;45.876;12.300;2024-03-22T03:39:04;10.30;55.70
3727;DHT22;1879;45.876;12.300;2024-03-22T03:41:31;10.30;39.80
3727;DHT22;1879;45.876;12.300;2024-03-22T03:43:59;10.30;39.70
3727;DHT22;1879;45.876;12.300;2024-03-22T03:46:26;10.30;47.40
3727;DHT22;1879;45.876;12.300;2024-03-22T03:48:52;10.30;42.20
3727;DHT22;1879;45.876;12.300;2024-03-22T03:51:20;10.30;46.60
3727;DHT22;1879;45.876;12.300;2024-03-22T03:53:47;10.30;40.20
3727;DHT22;1879;45.876;12.300;2024-03-22T03:56:28;10.40;22.60
3727;DHT22;1879;45.876;12.300;2024-03-22T03:58:56;10.40;1.00
3727;DHT22;1879;45.876;12.300;2024-03-22T04:01:23;10.50;1.00
3727;DHT22;1879;45.876;12.300;2024-03-22T04:03:52;10.50;1.00
3727;DHT22;1879;45.876;12.300;2024-03-22T04:06:35;10.50;1.00
3727;DHT22;1879;45.876;12.300;2024-03-22T04:09:02;10.60;1.00
3727;DHT22;1879;45.876;12.300;2024-03-22T04:11:34;10.60;1.00
3727;DHT22;1879;45.876;12.300;2024-03-22T04:14:23;10.60;1.00
3727;DHT22;1879;45.876;12.300;2024-03-22T04:17:08;10.70;1.00
3727;DHT22;1879;45.876;12.300;2024-03-22T04:20:21;10.60;1.00
3727;DHT22;1879;45.876;12.300;2024-03-22T04:23:33;10.60;1.00
3727;DHT22;1879;45.876;12.300;2024-03-22T04:26:42;10.60;1.00
3727;DHT22;1879;45.876;12.300;2024-03-22T04:29:30;10.60;1.00
3727;DHT22;1879;45.876;12.300;2024-03-22T04:31:56;10.50;1.00
3727;DHT22;1879;45.876;12.300;2024-03-22T04:34:23;10.40;1.00
3727;DHT22;1879;45.876;12.300;2024-03-22T04:36:50;10.40;1.00
3727;DHT22;1879;45.876;12.300;2024-03-22T04:39:19;10.40;1.00
3727;DHT22;1879;45.876;12.300;2024-03-22T04:41:46;10.50;1.00
3727;DHT22;1879;45.876;12.300;2024-03-22T04:44:13;10.60;1.00
3727;DHT22;1879;45.876;12.300;2024-03-22T04:46:40;10.60;1.00
3727;DHT22;1879;45.876;12.300;2024-03-22T04:49:05;10.60;1.00
3727;DHT22;1879;45.876;12.300;2024-03-22T04:51:32;10.70;1.00
3727;DHT22;1879;45.876;12.300;2024-03-22T04:53:58;10.70;1.00
3727;DHT22;1879;45.876;12.300;2024-03-22T04:56:26;10.80;1.00
3727;DHT22;1879;45.876;12.300;2024-03-22T04:58:52;10.70;1.00
3727;DHT22;1879;45.876;12.300;2024-03-22T05:01:20;10.70;1.00
3727;DHT22;1879;45.876;12.300;2024-03-22T05:03:46;10.80;1.00
3727;DHT22;1879;45.876;12.300;2024-03-22T05:06:13;10.80;1.00
3727;DHT22;1879;45.876;12.300;2024-03-22T05:08:39;11.00;1.00
3727;DHT22;1879;45.876;12.300;2024-03-22T05:11:07;11.00;1.00
3727;DHT22;1879;45.876;12.300;2024-03-22T05:13:34;11.10;1.00
3727;DHT22;1879;45.876;12.300;2024-03-22T05:16:01;11.20;99.90
3727;DHT22;1879;45.876;12.300;2024-03-22T05:18:27;11.20;99.90
3727;DHT22;1879;45.876;12.300;2024-03-22T05:20:54;11.20;1.00
3727;DHT22;1879;45.876;12.300;2024-03-22T05:23:23;11.20;99.90
3727;DHT22;1879;45.876;12.300;2024-03-22T05:25:50;11.20;99.90
3727;DHT22;1879;45.876;12.300;2024-03-22T05:28:17;11.30;99.90
3727;DHT22;1879;45.876;12.300;2024-03-22T05:30:45;11.30;99.90
3727;DHT22;1879;45.876;12.300;2024-03-22T05:33:12;11.30;99.70
3727;DHT22;1879;45.876;12.300;2024-03-22T05:35:39;11.40;5.00
3727;DHT22;1879;45.876;12.300;2024-03-22T05:38:05;11.40;1.00
3727;DHT22;1879;45.876;12.300;2024-03-22T05:40:32;11.40;99.90
3727;DHT22;1879;45.876;12.300;2024-03-22T05:42:57;11.40;1.00
3727;DHT22;1879;45.876;12.300;2024-03-22T05:45:24;11.40;14.30
3727;DHT22;1879;45.876;12.300;2024-03-22T05:47:51;11.40;1.00
3727;DHT22;1879;45.876;12.300;2024-03-22T05:50:18;11.40;1.00
3727;DHT22;1879;45.876;12.300;2024-03-22T05:52:47;11.40;1.00
3727;DHT22;1879;45.876;12.300;2024-03-22T05:55:14;11.40;99.90
3727;DHT22;1879;45.876;12.300;2024-03-22T05:57:40;11.40;1.00
3727;DHT22;1879;45.876;12.300;2024-03-22T06:00:08;11.50;1.00
3727;DHT22;1879;45.876;12.300;2024-03-22T06:02:34;11.60;45.40
3727;DHT22;1879;45.876;12.300;2024-03-22T06:05:02;11.70;81.90
3727;DHT22;1879;45.876;12.300;2024-03-22T06:07:28;11.90;87.60
3727;DHT22;1879;45.876;12.300;2024-03-22T06:09:55;11.90;99.90
3727;DHT22;1879;45.876;12.300;2024-03-22T06:12:21;12.00;99.90
3727;DHT22;1879;45.876;12.300;2024-03-22T06:14:48;12.10;99.90
3727;DHT22;1879;45.876;12.300;2024-03-22T06:17:16;12.10;99.90
3727;DHT22;1879;45.876;12.300;2024-03-22T06:19:43;12.10;99.90
3727;DHT22;1879;45.876;12.300;2024-03-22T06:22:10;12.20;99.90
3727;DHT22;1879;45.876;12.300;2024-03-22T06:24:38;12.30;99.90
3727;DHT22;1879;45.876;12.300;2024-03-22T06:27:04;12.30;99.90
3727;DHT22;1879;45.876;12.300;2024-03-22T06:29:31;12.40;99.90
3727;DHT22;1879;45.876;12.300;2024-03-22T06:31:57;12.40;99.90
3727;DHT22;1879;45.876;12.300;2024-03-22T06:34:24;12.50;99.90
3727;DHT22;1879;45.876;12.300;2024-03-22T06:36:50;12.60;99.90
3727;DHT22;1879;45.876;12.300;2024-03-22T06:39:18;12.60;99.90
3727;DHT22;1879;45.876;12.300;2024-03-22T06:41:45;12.70;99.90
3727;DHT22;1879;45.876;12.300;2024-03-22T06:44:12;12.70;99.90
3727;DHT22;1879;45.876;12.300;2024-03-22T06:46:39;12.80;99.90
3727;DHT22;1879;45.876;12.300;2024-03-22T06:49:06;12.80;99.90
3727;DHT22;1879;45.876;12.300;2024-03-22T06:51:32;12.80;99.90
3727;DHT22;1879;45.876;12.300;2024-03-22T06:53:59;12.90;99.90
3727;DHT22;1879;45.876;12.300;2024-03-22T06:56:26;12.90;99.90
3727;DHT22;1879;45.876;12.300;2024-03-22T06:58:53;13.00;99.90
3727;DHT22;1879;45.876;12.300;2024-03-22T07:01:19;13.00;99.90
3727;DHT22;1879;45.876;12.300;2024-03-22T07:03:46;13.10;99.90
3727;DHT22;1879;45.876;12.300;2024-03-22T07:06:14;13.10;99.90
3727;DHT22;1879;45.876;12.300;2024-03-22T07:08:40;13.30;99.90
3727;DHT22;1879;45.876;12.300;2024-03-22T07:11:07;13.30;99.90
3727;DHT22;1879;45.876;12.300;2024-03-22T07:13:35;13.40;99.90
3727;DHT22;1879;45.876;12.300;2024-03-22T07:16:02;13.50;99.90
3727;DHT22;1879;45.876;12.300;2024-03-22T07:18:29;13.60;99.90
3727;DHT22;1879;45.876;12.300;2024-03-22T07:20:55;13.70;99.90
3727;DHT22;1879;45.876;12.300;2024-03-22T07:23:23;13.80;99.90
3727;DHT22;1879;45.876;12.300;2024-03-22T07:25:49;13.80;99.90
3727;DHT22;1879;45.876;12.300;2024-03-22T07:28:16;13.90;99.90
3727;DHT22;1879;45.876;12.300;2024-03-22T07:30:43;14.10;99.90
3727;DHT22;1879;45.876;12.300;2024-03-22T07:33:10;14.10;99.90
3727;DHT22;1879;45.876;12.300;2024-03-22T07:35:38;14.20;99.90
3727;DHT22;1879;45.876;12.300;2024-03-22T07:38:05;14.30;99.90
3727;DHT22;1879;45.876;12.300;2024-03-22T07:40:31;14.40;99.90
3727;DHT22;1879;45.876;12.300;2024-03-22T07:42:58;14.50;99.90
3727;DHT22;1879;45.876;12.300;2024-03-22T07:45:25;14.50;99.90
3727;DHT22;1879;45.876;12.300;2024-03-22T07:47:53;14.60;99.90
3727;DHT22;1879;45.876;12.300;2024-03-22T07:50:19;14.60;99.90
3727;DHT22;1879;45.876;12.300;2024-03-22T07:52:45;14.60;99.90
3727;DHT22;1879;45.876;12.300;2024-03-22T07:55:11;14.60;99.90
3727;DHT22;1879;45.876;12.300;2024-03-22T07:57:38;14.60;99.90
3727;DHT22;1879;45.876;12.300;2024-03-22T08:00:05;14.60;99.90
3727;DHT22;1879;45.876;12.300;2024-03-22T08:02:33;14.60;99.90
3727;DHT22;1879;45.876;12.300;2024-03-22T08:05:01;14.60;99.90
3727;DHT22;1879;45.876;12.300;2024-03-22T08:07:28;14.60;99.90
3727;DHT22;1879;45.876;12.300;2024-03-22T08:09:54;14.60;99.90
3727;DHT22;1879;45.876;12.300;2024-03-22T08:12:23;14.60;99.90
3727;DHT22;1879;45.876;12.300;2024-03-22T08:14:50;14.60;1.00
3727;DHT22;1879;45.876;12.300;2024-03-22T08:17:17;14.70;1.00
3727;DHT22;1879;45.876;12.300;2024-03-22T08:19:43;14.70;1.00
3727;DHT22;1879;45.876;12.300;2024-03-22T08:22:12;14.70;99.90
3727;DHT22;1879;45.876;12.300;2024-03-22T08:24:37;14.80;99.90
3727;DHT22;1879;45.876;12.300;2024-03-22T08:27:05;14.80;99.90
3727;DHT22;1879;45.876;12.300;2024-03-22T08:29:31;14.80;1.00
3727;DHT22;1879;45.876;12.300;2024-03-22T08:31:57;14.80;10.80
3727;DHT22;1879;45.876;12.300;2024-03-22T08:34:24;14.80;1.00
3727;DHT22;1879;45.876;12.300;2024-03-22T08:36:51;14.90;99.90
3727;DHT22;1879;45.876;12.300;2024-03-22T08:39:18;15.00;1.00
3727;DHT22;1879;45.876;12.300;2024-03-22T08:41:46;15.00;99.90
3727;DHT22;1879;45.876;12.300;2024-03-22T08:44:12;15.10;99.90
3727;DHT22;1879;45.876;12.300;2024-03-22T08:46:39;15.10;99.90
3727;DHT22;1879;45.876;12.300;2024-03-22T08:49:05;15.20;99.90
3727;DHT22;1879;45.876;12.300;2024-03-22T08:51:32;15.30;99.90
3727;DHT22;1879;45.876;12.300;2024-03-22T08:53:57;15.40;99.90
3727;DHT22;1879;45.876;12.300;2024-03-22T08:56:26;15.50;99.90
3727;DHT22;1879;45.876;12.300;2024-03-22T08:58:52;15.60;99.90
3727;DHT22;1879;45.876;12.300;2024-03-22T09:01:19;15.70;99.90
3727;DHT22;1879;45.876;12.300;2024-03-22T09:03:45;15.80;99.90
3727;DHT22;1879;45.876;12.300;2024-03-22T09:06:12;15.90;99.90
3727;DHT22;1879;45.876;12.300;2024-03-22T09:08:38;16.00;99.90
3727;DHT22;1879;45.876;12.300;2024-03-22T09:11:04;16.00;99.90
3727;DHT22;1879;45.876;12.300;2024-03-22T09:13:32;16.10;99.90
3727;DHT22;1879;45.876;12.300;2024-03-22T09:16:01;16.10;99.90
3727;DHT22;1879;45.876;12.300;2024-03-22T09:18:27;16.30;99.90
3727;DHT22;1879;45.876;12.300;2024-03-22T09:20:54;16.30;99.90
3727;DHT22;1879;45.876;12.300;2024-03-22T09:23:20;16.40;99.90
3727;DHT22;1879;45.876;12.300;2024-03-22T09:25:47;16.50;99.90
3727;DHT22;1879;45.876;12.300;2024-03-22T09:28:13;16.60;99.90
3727;DHT22;1879;45.876;12.300;2024-03-22T09:30:41;16.70;99.90
3727;DHT22;1879;45.876;12.300;2024-03-22T09:33:08;16.80;99.90
3727;DHT22;1879;45.876;12.300;2024-03-22T09:35:36;16.90;99.90
3727;DHT22;1879;45.876;12.300;2024-03-22T09:38:02;17.00;99.90
3727;DHT22;1879;45.876;12.300;2024-03-22T09:40:29;17.10;99.90
3727;DHT22;1879;45.876;12.300;2024-03-22T09:42:59;17.10;99.90
3727;DHT22;1879;45.876;12.300;2024-03-22T09:45:28;17.20;99.80
3727;DHT22;1879;45.876;12.300;2024-03-22T09:47:57;17.30;99.40
3727;DHT22;1879;45.876;12.300;2024-03-22T09:50:25;17.40;99.10
3727;DHT22;1879;45.876;12.300;2024-03-22T09:52:52;17.50;98.50
3727;DHT22;1879;45.876;12.300;2024-03-22T09:55:22;17.50;98.40
3727;DHT22;1879;45.876;12.300;2024-03-22T09:57:49;17.60;97.60
3727;DHT22;1879;45.876;12.300;2024-03-22T10:00:18;17.70;97.90
3727;DHT22;1879;45.876;12.300;2024-03-22T10:02:46;17.80;97.40
3727;DHT22;1879;45.876;12.300;2024-03-22T10:05:16;17.80;97.00
3727;DHT22;1879;45.876;12.300;2024-03-22T10:07:43;17.80;96.20
3727;DHT22;1879;45.876;12.300;2024-03-22T10:10:10;17.90;96.10
3727;DHT22;1879;45.876;12.300;2024-03-22T10:12:37;17.90;96.30
3727;DHT22;1879;45.876;12.300;2024-03-22T10:15:05;18.00;96.40
3727;DHT22;1879;45.876;12.300;2024-03-22T10:17:34;18.30;96.70
3727;DHT22;1879;45.876;12.300;2024-03-22T10:20:01;18.40;96.00
3727;DHT22;1879;45.876;12.300;2024-03-22T10:22:29;18.40;95.70
3727;DHT22;1879;45.876;12.300;2024-03-22T10:24:56;18.50;96.00
3727;DHT22;1879;45.876;12.300;2024-03-22T10:27:27;18.60;96.10
3727;DHT22;1879;45.876;12.300;2024-03-22T10:29:54;18.80;95.70
3727;DHT22;1879;45.876;12.300;2024-03-22T10:32:20;18.90;95.40
3727;DHT22;1879;45.876;12.300;2024-03-22T10:34:47;19.10;95.00
3727;DHT22;1879;45.876;12.300;2024-03-22T10:37:15;19.20;94.50
3727;DHT22;1879;45.876;12.300;2024-03-22T10:39:45;19.30;93.50
3727;DHT22;1879;45.876;12.300;2024-03-22T10:42:11;19.40;93.30
3727;DHT22;1879;45.876;12.300;2024-03-22T10:44:40;19.50;92.40
3727;DHT22;1879;45.876;12.300;2024-03-22T10:47:09;19.60;92.90
3727;DHT22;1879;45.876;12.300;2024-03-22T10:49:38;19.80;93.40
3727;DHT22;1879;45.876;12.300;2024-03-22T10:52:05;20.00;93.40
3727;DHT22;1879;45.876;12.300;2024-03-22T10:54:36;20.10;93.10
3727;DHT22;1879;45.876;12.300;2024-03-22T10:57:05;20.20;92.40
3727;DHT22;1879;45.876;12.300;2024-03-22T10:59:33;20.30;92.00
3727;DHT22;1879;45.876;12.300;2024-03-22T11:02:03;20.30;91.00
3727;DHT22;1879;45.876;12.300;2024-03-22T11:04:31;20.50;91.40
3727;DHT22;1879;45.876;12.300;2024-03-22T11:06:57;20.60;81.80
3727;DHT22;1879;45.876;12.300;2024-03-22T11:09:25;20.60;79.80
3727;DHT22;1879;45.876;12.300;2024-03-22T11:11:52;20.60;80.70
3727;DHT22;1879;45.876;12.300;2024-03-22T11:14:21;20.70;83.00
3727;DHT22;1879;45.876;12.300;2024-03-22T11:16:47;20.80;80.60
3727;DHT22;1879;45.876;12.300;2024-03-22T11:19:14;20.90;80.50
3727;DHT22;1879;45.876;12.300;2024-03-22T11:21:40;21.00;79.80
3727;DHT22;1879;45.876;12.300;2024-03-22T11:24:07;21.10;78.20
3727;DHT22;1879;45.876;12.300;2024-03-22T11:26:33;21.40;78.90
3727;DHT22;1879;45.876;12.300;2024-03-22T11:29:00;21.90;96.30
3727;DHT22;1879;45.876;12.300;2024-03-22T11:31:28;22.00;74.40
3727;DHT22;1879;45.876;12.300;2024-03-22T11:33:59;22.90;70.60
3727;DHT22;1879;45.876;12.300;2024-03-22T11:36:25;22.80;70.70
3727;DHT22;1879;45.876;12.300;2024-03-22T11:38:52;23.30;70.10
3727;DHT22;1879;45.876;12.300;2024-03-22T11:41:21;24.00;70.50
3727;DHT22;1879;45.876;12.300;2024-03-22T11:43:50;24.20;64.90
3727;DHT22;1879;45.876;12.300;2024-03-22T11:46:17;25.00;65.40
3727;DHT22;1879;45.876;12.300;2024-03-22T11:48:51;25.90;61.50
3727;DHT22;1879;45.876;12.300;2024-03-22T11:51:17;26.90;84.70
3727;DHT22;1879;45.876;12.300;2024-03-22T11:53:49;28.60;53.60
3727;DHT22;1879;45.876;12.300;2024-03-22T11:56:18;28.70;52.50
3727;DHT22;1879;45.876;12.300;2024-03-22T11:58:46;29.10;49.50
3727;DHT22;1879;45.876;12.300;2024-03-22T12:01:13;29.70;47.80
3727;DHT22;1879;45.876;12.300;2024-03-22T12:03:43;29.70;41.70
3727;DHT22;1879;45.876;12.300;2024-03-22T12:06:11;30.10;41.10
3727;DHT22;1879;45.876;12.300;2024-03-22T12:08:38;30.80;40.60
3727;DHT22;1879;45.876;12.300;2024-03-22T12:11:07;30.70;38.40
3727;DHT22;1879;45.876;12.300;2024-03-22T12:13:34;30.80;35.40
3727;DHT22;1879;45.876;12.300;2024-03-22T12:16:00;30.30;34.00
3727;DHT22;1879;45.876;12.300;2024-03-22T12:18:27;30.80;36.30
3727;DHT22;1879;45.876;12.300;2024-03-22T12:23:22;31.10;30.90
3727;DHT22;1879;45.876;12.300;2024-03-22T12:25:49;30.40;31.30
3727;DHT22;1879;45.876;12.300;2024-03-22T12:28:16;30.30;33.10
3727;DHT22;1879;45.876;12.300;2024-03-22T12:30:42;30.90;35.10
3727;DHT22;1879;45.876;12.300;2024-03-22T12:33:09;31.30;35.00
3727;DHT22;1879;45.876;12.300;2024-03-22T12:35:36;31.30;34.20
3727;DHT22;1879;45.876;12.300;2024-03-22T12:38:03;31.90;35.30
3727;DHT22;1879;45.876;12.300;2024-03-22T12:40:30;31.60;33.00
3727;DHT22;1879;45.876;12.300;2024-03-22T12:42:58;31.30;33.00
3727;DHT22;1879;45.876;12.300;2024-03-22T12:45:24;31.20;33.10
3727;DHT22;1879;45.876;12.300;2024-03-22T12:47:51;31.70;33.10
3727;DHT22;1879;45.876;12.300;2024-03-22T12:50:17;31.90;32.80
3727;DHT22;1879;45.876;12.300;2024-03-22T12:52:44;32.30;33.20
3727;DHT22;1879;45.876;12.300;2024-03-22T12:55:10;31.60;30.70
3727;DHT22;1879;45.876;12.300;2024-03-22T12:57:39;31.80;31.10
3727;DHT22;1879;45.876;12.300;2024-03-22T13:00:06;31.60;32.10
3727;DHT22;1879;45.876;12.300;2024-03-22T13:02:39;31.90;32.10
3727;DHT22;1879;45.876;12.300;2024-03-22T13:05:05;31.30;32.10
3727;DHT22;1879;45.876;12.300;2024-03-22T13:07:32;31.70;33.50
3727;DHT22;1879;45.876;12.300;2024-03-22T13:09:58;31.50;32.30
3727;DHT22;1879;45.876;12.300;2024-03-22T13:12:26;31.70;33.90
3727;DHT22;1879;45.876;12.300;2024-03-22T13:14:53;31.20;33.80
3727;DHT22;1879;45.876;12.300;2024-03-22T13:17:20;31.20;33.40
3727;DHT22;1879;45.876;12.300;2024-03-22T13:19:46;31.80;34.00
3727;DHT22;1879;45.876;12.300;2024-03-22T13:22:13;31.70;32.10
3727;DHT22;1879;45.876;12.300;2024-03-22T13:24:41;31.70;32.00
3727;DHT22;1879;45.876;12.300;2024-03-22T13:27:08;32.00;31.40
3727;DHT22;1879;45.876;12.300;2024-03-22T13:29:34;31.90;31.30
3727;DHT22;1879;45.876;12.300;2024-03-22T13:32:03;31.90;32.00
3727;DHT22;1879;45.876;12.300;2024-03-22T13:34:30;31.20;31.30
3727;DHT22;1879;45.876;12.300;2024-03-22T13:36:57;31.50;32.00
3727;DHT22;1879;45.876;12.300;2024-03-22T13:39:23;32.10;31.70
3727;DHT22;1879;45.876;12.300;2024-03-22T13:41:49;32.00;31.50
3727;DHT22;1879;45.876;12.300;2024-03-22T13:44:15;31.40;31.00
3727;DHT22;1879;45.876;12.300;2024-03-22T13:46:50;30.90;31.10
3727;DHT22;1879;45.876;12.300;2024-03-22T13:49:20;31.50;32.20
3727;DHT22;1879;45.876;12.300;2024-03-22T13:52:00;31.30;31.20
3727;DHT22;1879;45.876;12.300;2024-03-22T13:54:27;31.20;30.70
3727;DHT22;1879;45.876;12.300;2024-03-22T13:56:53;31.10;31.10
3727;DHT22;1879;45.876;12.300;2024-03-22T13:59:26;30.80;31.30
3727;DHT22;1879;45.876;12.300;2024-03-22T14:01:52;31.20;32.10
3727;DHT22;1879;45.876;12.300;2024-03-22T14:04:21;30.70;30.70
3727;DHT22;1879;45.876;12.300;2024-03-22T14:06:47;31.40;31.20
3727;DHT22;1879;45.876;12.300;2024-03-22T14:09:14;32.20;31.60
3727;DHT22;1879;45.876;12.300;2024-03-22T14:11:41;32.50;31.00
3727;DHT22;1879;45.876;12.300;2024-03-22T14:14:10;32.00;30.50
3727;DHT22;1879;45.876;12.300;2024-03-22T14:16:37;31.60;31.00
3727;DHT22;1879;45.876;12.300;2024-03-22T14:19:04;31.60;30.60
3727;DHT22;1879;45.876;12.300;2024-03-22T14:21:32;32.10;31.50
3727;DHT22;1879;45.876;12.300;2024-03-22T14:23:58;32.30;31.00
3727;DHT22;1879;45.876;12.300;2024-03-22T14:26:24;32.00;30.50
3727;DHT22;1879;45.876;12.300;2024-03-22T14:28:53;31.60;30.40
3727;DHT22;1879;45.876;12.300;2024-03-22T14:31:19;31.30;31.30
3727;DHT22;1879;45.876;12.300;2024-03-22T14:33:46;30.90;31.30
3727;DHT22;1879;45.876;12.300;2024-03-22T14:36:13;30.90;31.30
3727;DHT22;1879;45.876;12.300;2024-03-22T14:38:41;30.50;30.90
3727;DHT22;1879;45.876;12.300;2024-03-22T14:41:07;29.70;31.30
3727;DHT22;1879;45.876;12.300;2024-03-22T14:43:34;29.60;31.70
3727;DHT22;1879;45.876;12.300;2024-03-22T14:46:01;29.30;32.10
3727;DHT22;1879;45.876;12.300;2024-03-22T14:48:28;29.00;31.70
3727;DHT22;1879;45.876;12.300;2024-03-22T14:50:54;29.00;32.20
3727;DHT22;1879;45.876;12.300;2024-03-22T14:53:21;29.20;32.30
3727;DHT22;1879;45.876;12.300;2024-03-22T14:55:56;29.40;32.20
3727;DHT22;1879;45.876;12.300;2024-03-22T14:58:24;29.30;32.30
3727;DHT22;1879;45.876;12.300;2024-03-22T15:00:52;28.20;31.80
3727;DHT22;1879;45.876;12.300;2024-03-22T15:03:19;28.10;33.30
3727;DHT22;1879;45.876;12.300;2024-03-22T15:05:44;27.80;33.30
3727;DHT22;1879;45.876;12.300;2024-03-22T15:08:11;27.60;33.60
3727;DHT22;1879;45.876;12.300;2024-03-22T15:10:37;27.30;34.30
3727;DHT22;1879;45.876;12.300;2024-03-22T15:15:35;26.30;33.70
3727;DHT22;1879;45.876;12.300;2024-03-22T15:18:02;26.10;34.60
3727;DHT22;1879;45.876;12.300;2024-03-22T15:20:28;25.90;35.50
3727;DHT22;1879;45.876;12.300;2024-03-22T15:22:55;26.10;35.50
3727;DHT22;1879;45.876;12.300;2024-03-22T15:25:21;26.00;35.30
3727;DHT22;1879;45.876;12.300;2024-03-22T15:27:48;25.90;35.40
3727;DHT22;1879;45.876;12.300;2024-03-22T15:30:15;25.90;36.10
3727;DHT22;1879;45.876;12.300;2024-03-22T15:32:42;26.00;36.20
3727;DHT22;1879;45.876;12.300;2024-03-22T15:35:09;26.00;36.20
3727;DHT22;1879;45.876;12.300;2024-03-22T15:37:37;26.10;36.00
3727;DHT22;1879;45.876;12.300;2024-03-22T15:40:03;26.10;35.70
3727;DHT22;1879;45.876;12.300;2024-03-22T15:42:31;26.30;35.70
3727;DHT22;1879;45.876;12.300;2024-03-22T15:44:57;26.40;35.40
3727;DHT22;1879;45.876;12.300;2024-03-22T15:47:29;26.20;35.60
3727;DHT22;1879;45.876;12.300;2024-03-22T15:49:55;26.00;35.70
3727;DHT22;1879;45.876;12.300;2024-03-22T15:52:22;26.00;36.30
3727;DHT22;1879;45.876;12.300;2024-03-22T15:54:48;25.90;36.60
3727;DHT22;1879;45.876;12.300;2024-03-22T15:57:16;25.70;36.60